This demonstration page uses our WeatherBlox Daily Observations layout. Learn more.

38.88101, -77.10428

Hourly Observations for November 12, 2016

Temp ( °F °C ) Dew Point ( °F °C ) Humidity (%) Winds ( mph kmh ) Pressure ( in mb ) Visibility ( mi km ) Precip ( " mm )
12:52 am 00:52 Mostly Cloudy 47 8.3 26 -3.3 44 44 N 17 28 30.24 1024 10 16.09344 0 0
1:52 am 01:52 Mostly Cloudy 45 7.2 26 -3.3 48 48 NNE 16 26 30.27 1025 10 16.09344 0 0
2:52 am 02:52 Partly Cloudy 43 6.1 25 -3.9 49 49 NNE 15 24 30.3 1026 10 16.09344 0 0
3:52 am 03:52 Partly Cloudy 41 5 25 -3.9 53 53 N 14 22 30.33 1027 10 16.09344 0 0
4:52 am 04:52 Clear 40 4.4 24 -4.4 53 53 N 10 17 30.36 1028 10 16.09344 0 0
5:52 am 05:52 Clear 39 3.9 24 -4.4 55 55 NNW 9 15 30.36 1028 10 16.09344 0 0
6:52 am 06:52 Mostly Sunny 38 3.3 24 -4.4 57 57 N 10 17 30.39 1029 10 16.09344 0 0
7:52 am 07:52 Mostly Sunny 41 5 25 -3.9 53 53 NNW 12 19 30.42 1030 10 16.09344 0 0
8:52 am 08:52 Mostly Sunny 43 6.1 25 -3.9 49 49 NW 10 17 30.45 1031 10 16.09344 0 0
9:52 am 09:52 Mostly Sunny 45 7.2 24 -4.4 44 44 N 6 9 30.45 1031 10 16.09344 0 0
10:52 am 10:52 Mostly Sunny 47 8.3 23 -5 39 39 NNE 3 6 30.45 1031 10 16.09344 0 0
11:52 am 11:52 Mostly Sunny 49 9.4 23 -5 36 36 NW 9 15 30.42 1030 10 16.09344 0 0
12:52 pm 12:52 Sunny 50 10 22 -5.6 33 33 NNW 6 9 30.39 1029 10 16.09344 0 0
1:52 pm 13:52 Sunny 51 10.6 22 -5.6 32 32 NW 6 9 30.36 1028 10 16.09344 0 0
2:52 pm 14:52 Sunny 53 11.7 23 -5 31 31 NNW 5 7 30.33 1027 10 16.09344 0 0
3:52 pm 15:52 Sunny 52 11.1 22 -5.6 31 31 NW 7 11 30.33 1027 10 16.09344 0 0
4:52 pm 16:52 Mostly Sunny 49 9.4 21 -6.1 33 33 NNW 7 11 30.33 1027 10 16.09344 0 0
5:52 pm 17:52 Clear 49 9.4 21 -6.1 33 33 NW 6 9 30.33 1027 10 16.09344 0 0
6:52 pm 18:52 Clear 47 8.3 25 -3.9 42 42 W 3 6 30.33 1027 10 16.09344 0 0
7:52 pm 19:52 Clear 44 6.7 28 -2.2 53 53 Calm 30.3 1026 10 16.09344 0 0
8:52 pm 20:52 Clear 42 5.6 27 -2.8 55 55 SSW 5 7 30.3 1026 10 16.09344 0 0
9:52 pm 21:52 Clear 40 4.4 29 -1.7 65 65 SSW 6 9 30.3 1026 10 16.09344 0 0
10:52 pm 22:52 Clear 40 4.4 28 -2.2 63 63 SSW 3 6 30.3 1026 10 16.09344 0 0
11:52 pm 23:52 Clear 38 3.3 27 -2.8 65 65 SSW 6 9 30.3 1026 10 16.09344 0 0

Powered by AerisWeather